Flight Track Log - Related Links

Times and Time Zones

All times are in EST time to prevent confusion due to time zone crossing. See the SKW5631 flight status page for this flight to view local times or setup timezone preferences in your user account.

Time Position Orientation Groundspeed Altitude Reporting Facility
EST Latitude Longitude Course Direction KTS MPH feet Rate Location/Type
Sat 10:45:08 PM 37.6500 -122.3667 138° Southeast 158 182 1,400  Level Northern TRACON
Sat 10:46:02 PM 37.7000 -122.3667 360° North 202 232 2,900 2,400 Climbing Northern TRACON
Sat 10:47:00 PM 37.3252 -122.0093 135° Southeast  Level Estimated
Sat 10:47:03 PM 37.6881 -122.4358 258° West 229 264 6,000  Level Oakland Center
Sat 10:48:00 PM 37.2270 -121.8879 133° Southeast  Level Estimated
Sat 10:48:04 PM 37.6228 -122.4325 178° South 235 270 8,500  Level Oakland Center
Sat 10:49:00 PM 37.1287 -121.7669 135° Southeast  Level Estimated
Sat 10:49:05 PM 37.5458 -122.4206 173° South 279 321 10,500  Level Oakland Center
Sat 10:50:00 PM 37.0302 -121.6462 138° Southeast  Level Estimated
Sat 10:50:06 PM 37.4636 -122.3911 164° South 308 354 12,100  Level Oakland Center
Sat 10:51:06 PM 37.3922 -122.3103 138° Southeast 347 399 13,500 1,339 Climbing Oakland Center
Sat 10:52:07 PM 37.3161 -122.2264 139° Southeast 362 417 14,800 1,426 Climbing Oakland Center
Sat 10:53:08 PM 37.2378 -122.1414 139° Southeast 372 428 16,400 1,475 Climbing Oakland Center
Sat 10:54:09 PM 37.1575 -122.0533 139° Southeast 383 441 17,800 1,240 Climbing Oakland Center
Sat 10:55:09 PM 37.0775 -121.9653 139° Southeast 385 443 18,900 1,041 Climbing Oakland Center
Sat 10:56:10 PM 36.9942 -121.8753 139° Southeast 396 456 19,900 1,033 Climbing Oakland Center
Sat 10:57:11 PM 36.9069 -121.7836 140° Southeast 412 474 21,000 1,091 Climbing Oakland Center
Sat 10:58:11 PM 36.8081 -121.6758 139° Southeast 414 476 22,100 992 Climbing Oakland Center
Sat 10:59:12 PM 36.7192 -121.5800 139° Southeast 422 486 23,000 1,033 Climbing Oakland Center
Sat 11:00:13 PM 36.6300 -121.4844 139° Southeast 424 488 24,200 942 Climbing Oakland Center
Sat 11:01:13 PM 36.5419 -121.3856 138° Southeast 426 490 24,900 645 Climbing Oakland Center
Sat 11:02:14 PM 36.4506 -121.2897 140° Southeast 431 496 25,500 639 Climbing Oakland Center
Sat 11:03:15 PM 36.3572 -121.1914 140° Southeast 440 506 26,200 645 Climbing Oakland Center
Sat 11:04:15 PM 36.2656 -121.0917 139° Southeast 439 505 26,800 397 Climbing Oakland Center
Sat 11:05:16 PM 36.1711 -120.9917 139° Southeast 446 513 27,000 98 Climbing Oakland Center
Sat 11:06:17 PM 36.0739 -120.8883 139° Southeast 460 529 27,000  Level Oakland Center
Sat 11:07:18 PM 35.9742 -120.7831 139° Southeast 469 540 27,000  Level Oakland Center
Sat 11:08:18 PM 35.8750 -120.6772 139° Southeast 472 543 27,000  Level Oakland Center
Sat 11:09:19 PM 35.7747 -120.5736 140° Southeast 470 541 27,000  Level Oakland Center
Sat 11:10:20 PM 35.6761 -120.4689 139° Southeast 469 540 27,000  Level Oakland Center
Sat 11:11:21 PM 35.5769 -120.3650 140° Southeast 467 537 27,000  Level Oakland Center
Sat 11:12:21 PM 35.4819 -120.2664 140° Southeast 470 541 27,000  Level Oakland Center
Sat 11:13:22 PM 35.3714 -120.1519 140° Southeast 471 542 27,000  Level Oakland Center
Sat 11:14:23 PM 35.2697 -120.0483 140° Southeast 470 541 27,000  Level Oakland Center
Sat 11:15:23 PM 35.1700 -119.9453 140° Southeast 468 539 27,000  Level Oakland Center
Sat 11:16:24 PM 35.0717 -119.8394 139° Southeast 472 543 27,000 -246 Level Oakland Center
Sat 11:17:25 PM 34.9867 -119.7214 131° Southeast 465 535 26,500 -1,770 Descending Oakland Center
Sat 11:18:26 PM 34.9025 -119.6092 132° Southeast 452 520 23,400 -3,025 Descending Oakland Center
Sat 11:19:26 PM 34.8228 -119.5031 132° Southeast 434 499 20,400 -2,826 Descending Oakland Center
Sat 11:20:27 PM 34.7492 -119.4036 132° Southeast 406 467 17,700 -2,803 Descending Oakland Center
Sat 11:21:28 PM 34.6769 -119.3083 133° Southeast 389 448 14,700 -2,892 Descending Oakland Center
Sat 11:22:46 PM 34.5756 -119.1725 132° Southeast 376 433 11,000 -1,597 Descending Los Center
Sat 11:23:47 PM 34.5189 -119.0950 132° Southeast 309 356 11,000 -295 Level Los Center
Sat 11:24:48 PM 34.4717 -119.0253 129° Southeast 267 307 10,400 -934 Descending Los Center
Sat 11:25:49 PM 34.4231 -118.9528 129° Southeast 276 318 9,100 -1,377 Descending Los Center
Sat 11:26:50 PM 34.3781 -118.8783 126° Southeast 274 315 7,600 -1,623 Descending Los Center
Sat 11:27:51 PM 34.3297 -118.8125 132° Southeast 261 300 5,800 -1,328 Descending Los Center
Sat 11:28:52 PM 34.2881 -118.7478 128° Southeast 252 290 4,900 -885 Descending Los Center
Sat 11:29:53 PM 34.2503 -118.6903 128° Southeast 234 269 4,000 -443 Descending Los Center
Sat 11:30:54 PM 34.2139 -118.6306 126° Southeast 225 259 4,000 -393 Level Los Center
Sat 11:31:55 PM 34.2003 -118.5769 107° East 223 257 3,200 -492 Descending Los Center
Sat 11:32:56 PM 34.2000 -118.5033 90° East 198 228 3,000 -492 Descending Los Center
Sat 11:33:57 PM 34.2003 -118.4581 90° East 166 191 2,200 -836 Descending Los Center
Sat 11:34:58 PM 34.1989 -118.4025 92° East 146 168 1,300 -590 Descending Los Center
Sat 11:35:59 PM 34.1986 -118.3589 90° East 144 166 1,000 -295 Descending Los Center

Login

Don't have an account? Register now (free) for customized features, flight alerts, and more!